sensor_id;sensor_type;location;lat;lon;timestamp;P1;durP1;ratioP1;P2;durP2;ratioP2
40701;SDS011;26387;50.114;8.662;2022-11-03T00:00:55;20.02;;;6.28;;
40701;SDS011;26387;50.114;8.662;2022-11-03T00:03:20;16.38;;;5.05;;
40701;SDS011;26387;50.114;8.662;2022-11-03T00:05:46;18.00;;;5.38;;
40701;SDS011;26387;50.114;8.662;2022-11-03T00:08:30;15.85;;;5.60;;
40701;SDS011;26387;50.114;8.662;2022-11-03T00:11:02;18.58;;;5.30;;
40701;SDS011;26387;50.114;8.662;2022-11-03T00:13:45;17.05;;;4.90;;
40701;SDS011;26387;50.114;8.662;2022-11-03T00:16:11;17.85;;;4.72;;
40701;SDS011;26387;50.114;8.662;2022-11-03T00:18:37;15.63;;;4.80;;
40701;SDS011;26387;50.114;8.662;2022-11-03T00:21:07;19.27;;;5.53;;
40701;SDS011;26387;50.114;8.662;2022-11-03T00:23:38;15.50;;;5.22;;
40701;SDS011;26387;50.114;8.662;2022-11-03T00:26:06;16.40;;;5.97;;
40701;SDS011;26387;50.114;8.662;2022-11-03T00:28:34;19.17;;;5.35;;
40701;SDS011;26387;50.114;8.662;2022-11-03T00:31:04;18.48;;;5.38;;
40701;SDS011;26387;50.114;8.662;2022-11-03T00:33:40;23.27;;;5.55;;
40701;SDS011;26387;50.114;8.662;2022-11-03T00:36:07;13.88;;;5.32;;
40701;SDS011;26387;50.114;8.662;2022-11-03T00:38:36;17.35;;;5.15;;
40701;SDS011;26387;50.114;8.662;2022-11-03T00:41:02;18.75;;;5.30;;
40701;SDS011;26387;50.114;8.662;2022-11-03T00:43:29;18.10;;;5.43;;
40701;SDS011;26387;50.114;8.662;2022-11-03T00:45:56;14.43;;;4.72;;
40701;SDS011;26387;50.114;8.662;2022-11-03T00:48:22;18.15;;;4.78;;
40701;SDS011;26387;50.114;8.662;2022-11-03T00:53:40;14.75;;;4.65;;
40701;SDS011;26387;50.114;8.662;2022-11-03T00:56:11;13.95;;;5.13;;
40701;SDS011;26387;50.114;8.662;2022-11-03T00:58:41;15.23;;;5.43;;
40701;SDS011;26387;50.114;8.662;2022-11-03T01:01:09;16.70;;;5.40;;
40701;SDS011;26387;50.114;8.662;2022-11-03T01:03:37;20.10;;;5.07;;
40701;SDS011;26387;50.114;8.662;2022-11-03T01:06:05;16.45;;;4.97;;
40701;SDS011;26387;50.114;8.662;2022-11-03T01:08:54;16.35;;;4.53;;
40701;SDS011;26387;50.114;8.662;2022-11-03T01:11:20;14.05;;;4.95;;
40701;SDS011;26387;50.114;8.662;2022-11-03T01:14:07;15.80;;;5.20;;
40701;SDS011;26387;50.114;8.662;2022-11-03T01:16:34;13.80;;;5.10;;
40701;SDS011;26387;50.114;8.662;2022-11-03T01:18:59;13.23;;;4.65;;
40701;SDS011;26387;50.114;8.662;2022-11-03T01:21:25;15.68;;;4.97;;
40701;SDS011;26387;50.114;8.662;2022-11-03T01:23:51;18.52;;;4.85;;
40701;SDS011;26387;50.114;8.662;2022-11-03T01:26:17;18.17;;;5.28;;
40701;SDS011;26387;50.114;8.662;2022-11-03T01:28:43;20.33;;;5.22;;
40701;SDS011;26387;50.114;8.662;2022-11-03T01:31:15;19.25;;;5.00;;
40701;SDS011;26387;50.114;8.662;2022-11-03T01:33:43;14.57;;;4.60;;
40701;SDS011;26387;50.114;8.662;2022-11-03T01:36:13;16.08;;;5.40;;
40701;SDS011;26387;50.114;8.662;2022-11-03T01:38:39;18.75;;;5.97;;
40701;SDS011;26387;50.114;8.662;2022-11-03T01:41:06;15.38;;;5.05;;
40701;SDS011;26387;50.114;8.662;2022-11-03T01:43:33;17.15;;;5.40;;
40701;SDS011;26387;50.114;8.662;2022-11-03T01:46:11;17.77;;;5.35;;
40701;SDS011;26387;50.114;8.662;2022-11-03T01:51:20;23.88;;;5.78;;
40701;SDS011;26387;50.114;8.662;2022-11-03T01:53:47;13.10;;;5.72;;
40701;SDS011;26387;50.114;8.662;2022-11-03T01:56:16;19.95;;;6.07;;
40701;SDS011;26387;50.114;8.662;2022-11-03T01:58:43;18.52;;;5.68;;
40701;SDS011;26387;50.114;8.662;2022-11-03T02:01:11;16.48;;;5.82;;
40701;SDS011;26387;50.114;8.662;2022-11-03T02:03:38;20.98;;;6.03;;
40701;SDS011;26387;50.114;8.662;2022-11-03T02:06:07;16.27;;;5.40;;
40701;SDS011;26387;50.114;8.662;2022-11-03T02:08:37;17.90;;;5.47;;
40701;SDS011;26387;50.114;8.662;2022-11-03T02:11:16;16.15;;;6.13;;
40701;SDS011;26387;50.114;8.662;2022-11-03T02:14:01;15.45;;;5.82;;
40701;SDS011;26387;50.114;8.662;2022-11-03T02:16:27;21.45;;;6.05;;
40701;SDS011;26387;50.114;8.662;2022-11-03T02:18:56;15.68;;;5.45;;
40701;SDS011;26387;50.114;8.662;2022-11-03T02:21:26;20.17;;;6.15;;
40701;SDS011;26387;50.114;8.662;2022-11-03T02:24:23;16.40;;;5.45;;
40701;SDS011;26387;50.114;8.662;2022-11-03T02:27:00;13.45;;;5.53;;
40701;SDS011;26387;50.114;8.662;2022-11-03T02:29:25;19.77;;;6.05;;
40701;SDS011;26387;50.114;8.662;2022-11-03T02:31:59;17.80;;;5.60;;
40701;SDS011;26387;50.114;8.662;2022-11-03T02:37:07;11.30;;;4.88;;
40701;SDS011;26387;50.114;8.662;2022-11-03T02:39:45;12.88;;;5.43;;
40701;SDS011;26387;50.114;8.662;2022-11-03T02:42:12;14.95;;;6.00;;
40701;SDS011;26387;50.114;8.662;2022-11-03T02:44:40;12.60;;;5.55;;
40701;SDS011;26387;50.114;8.662;2022-11-03T02:47:08;18.67;;;5.60;;
40701;SDS011;26387;50.114;8.662;2022-11-03T02:49:38;16.55;;;6.25;;
40701;SDS011;26387;50.114;8.662;2022-11-03T02:55:11;15.02;;;5.97;;
40701;SDS011;26387;50.114;8.662;2022-11-03T03:00:30;16.17;;;6.13;;
40701;SDS011;26387;50.114;8.662;2022-11-03T03:03:03;16.50;;;6.05;;
40701;SDS011;26387;50.114;8.662;2022-11-03T03:05:34;17.40;;;5.90;;
40701;SDS011;26387;50.114;8.662;2022-11-03T03:08:04;20.15;;;5.60;;
40701;SDS011;26387;50.114;8.662;2022-11-03T03:10:32;16.13;;;6.47;;
40701;SDS011;26387;50.114;8.662;2022-11-03T03:13:02;18.67;;;5.85;;
40701;SDS011;26387;50.114;8.662;2022-11-03T03:15:45;17.38;;;5.90;;
40701;SDS011;26387;50.114;8.662;2022-11-03T03:18:15;17.20;;;5.90;;
40701;SDS011;26387;50.114;8.662;2022-11-03T03:23:19;19.42;;;5.43;;
40701;SDS011;26387;50.114;8.662;2022-11-03T03:25:59;16.85;;;6.13;;
40701;SDS011;26387;50.114;8.662;2022-11-03T03:28:36;17.80;;;5.95;;
40701;SDS011;26387;50.114;8.662;2022-11-03T03:31:07;20.52;;;6.25;;
40701;SDS011;26387;50.114;8.662;2022-11-03T03:33:36;11.68;;;5.80;;
40701;SDS011;26387;50.114;8.662;2022-11-03T03:36:03;13.70;;;5.35;;
40701;SDS011;26387;50.114;8.662;2022-11-03T03:38:36;19.15;;;5.30;;
40701;SDS011;26387;50.114;8.662;2022-11-03T03:41:07;13.65;;;5.78;;
40701;SDS011;26387;50.114;8.662;2022-11-03T03:43:37;12.18;;;5.22;;
40701;SDS011;26387;50.114;8.662;2022-11-03T03:46:05;17.27;;;6.20;;
40701;SDS011;26387;50.114;8.662;2022-11-03T03:48:34;18.88;;;5.88;;
40701;SDS011;26387;50.114;8.662;2022-11-03T03:51:00;16.83;;;6.57;;
40701;SDS011;26387;50.114;8.662;2022-11-03T03:53:26;16.90;;;6.32;;
40701;SDS011;26387;50.114;8.662;2022-11-03T03:55:54;15.02;;;6.38;;
40701;SDS011;26387;50.114;8.662;2022-11-03T03:58:19;18.55;;;5.75;;
40701;SDS011;26387;50.114;8.662;2022-11-03T04:00:45;20.63;;;6.05;;
40701;SDS011;26387;50.114;8.662;2022-11-03T04:05:42;19.30;;;5.65;;
40701;SDS011;26387;50.114;8.662;2022-11-03T04:08:08;15.07;;;5.88;;
40701;SDS011;26387;50.114;8.662;2022-11-03T04:10:35;15.10;;;5.63;;
40701;SDS011;26387;50.114;8.662;2022-11-03T04:13:00;18.15;;;6.40;;
40701;SDS011;26387;50.114;8.662;2022-11-03T04:15:45;15.55;;;5.10;;
40701;SDS011;26387;50.114;8.662;2022-11-03T04:18:17;17.35;;;6.10;;
40701;SDS011;26387;50.114;8.662;2022-11-03T04:21:02;21.80;;;6.00;;
40701;SDS011;26387;50.114;8.662;2022-11-03T04:23:47;17.83;;;6.05;;
40701;SDS011;26387;50.114;8.662;2022-11-03T04:26:16;16.30;;;5.82;;
40701;SDS011;26387;50.114;8.662;2022-11-03T04:28:43;18.20;;;6.05;;
40701;SDS011;26387;50.114;8.662;2022-11-03T04:31:11;12.27;;;5.18;;
40701;SDS011;26387;50.114;8.662;2022-11-03T04:33:37;19.33;;;5.78;;
40701;SDS011;26387;50.114;8.662;2022-11-03T04:36:08;23.48;;;6.10;;
40701;SDS011;26387;50.114;8.662;2022-11-03T04:38:42;18.92;;;5.43;;
40701;SDS011;26387;50.114;8.662;2022-11-03T04:41:14;14.45;;;5.55;;
40701;SDS011;26387;50.114;8.662;2022-11-03T04:43:47;17.08;;;5.40;;
40701;SDS011;26387;50.114;8.662;2022-11-03T04:46:14;16.33;;;5.50;;
40701;SDS011;26387;50.114;8.662;2022-11-03T04:48:44;16.17;;;5.65;;
40701;SDS011;26387;50.114;8.662;2022-11-03T04:51:16;19.08;;;5.47;;
40701;SDS011;26387;50.114;8.662;2022-11-03T04:53:47;18.70;;;5.88;;
40701;SDS011;26387;50.114;8.662;2022-11-03T04:56:16;14.00;;;5.75;;
40701;SDS011;26387;50.114;8.662;2022-11-03T04:58:44;19.77;;;6.15;;
40701;SDS011;26387;50.114;8.662;2022-11-03T05:01:12;15.18;;;5.45;;
40701;SDS011;26387;50.114;8.662;2022-11-03T05:03:39;14.65;;;5.45;;
40701;SDS011;26387;50.114;8.662;2022-11-03T05:08:44;14.98;;;5.85;;
40701;SDS011;26387;50.114;8.662;2022-11-03T05:11:16;17.95;;;5.40;;
40701;SDS011;26387;50.114;8.662;2022-11-03T05:13:50;19.65;;;5.70;;
40701;SDS011;26387;50.114;8.662;2022-11-03T05:16:16;18.08;;;5.72;;
40701;SDS011;26387;50.114;8.662;2022-11-03T05:18:43;16.52;;;5.43;;
40701;SDS011;26387;50.114;8.662;2022-11-03T05:21:21;18.02;;;6.43;;
40701;SDS011;26387;50.114;8.662;2022-11-03T05:23:49;22.58;;;5.38;;
40701;SDS011;26387;50.114;8.662;2022-11-03T05:26:27;15.25;;;5.32;;
40701;SDS011;26387;50.114;8.662;2022-11-03T05:29:03;14.38;;;5.38;;
40701;SDS011;26387;50.114;8.662;2022-11-03T05:31:33;15.18;;;6.25;;
40701;SDS011;26387;50.114;8.662;2022-11-03T05:34:01;15.68;;;6.03;;
40701;SDS011;26387;50.114;8.662;2022-11-03T05:36:31;19.90;;;6.43;;
40701;SDS011;26387;50.114;8.662;2022-11-03T05:38:58;14.00;;;5.90;;
40701;SDS011;26387;50.114;8.662;2022-11-03T05:41:41;17.70;;;6.28;;
40701;SDS011;26387;50.114;8.662;2022-11-03T05:46:58;20.10;;;6.03;;
40701;SDS011;26387;50.114;8.662;2022-11-03T05:49:24;19.35;;;6.50;;
40701;SDS011;26387;50.114;8.662;2022-11-03T05:51:51;15.00;;;6.10;;
40701;SDS011;26387;50.114;8.662;2022-11-03T05:54:26;19.38;;;5.85;;
40701;SDS011;26387;50.114;8.662;2022-11-03T05:56:56;15.65;;;5.60;;
40701;SDS011;26387;50.114;8.662;2022-11-03T05:59:23;26.95;;;6.13;;
40701;SDS011;26387;50.114;8.662;2022-11-03T06:01:52;18.25;;;6.03;;
40701;SDS011;26387;50.114;8.662;2022-11-03T06:04:28;20.98;;;6.20;;
40701;SDS011;26387;50.114;8.662;2022-11-03T06:09:55;19.27;;;7.35;;
40701;SDS011;26387;50.114;8.662;2022-11-03T06:12:22;28.15;;;6.63;;
40701;SDS011;26387;50.114;8.662;2022-11-03T06:14:49;15.40;;;6.35;;
40701;SDS011;26387;50.114;8.662;2022-11-03T06:17:23;18.10;;;6.07;;
40701;SDS011;26387;50.114;8.662;2022-11-03T06:19:57;14.32;;;5.60;;
40701;SDS011;26387;50.114;8.662;2022-11-03T06:22:28;20.48;;;6.07;;
40701;SDS011;26387;50.114;8.662;2022-11-03T06:27:45;21.88;;;6.43;;
40701;SDS011;26387;50.114;8.662;2022-11-03T06:32:39;16.27;;;5.72;;
40701;SDS011;26387;50.114;8.662;2022-11-03T06:35:05;13.82;;;5.13;;
40701;SDS011;26387;50.114;8.662;2022-11-03T06:37:34;16.55;;;5.57;;
40701;SDS011;26387;50.114;8.662;2022-11-03T06:42:33;23.38;;;5.70;;
40701;SDS011;26387;50.114;8.662;2022-11-03T06:45:00;19.50;;;5.30;;
40701;SDS011;26387;50.114;8.662;2022-11-03T06:47:37;16.98;;;6.00;;
40701;SDS011;26387;50.114;8.662;2022-11-03T06:50:06;18.52;;;5.70;;
40701;SDS011;26387;50.114;8.662;2022-11-03T06:52:45;26.05;;;5.47;;
40701;SDS011;26387;50.114;8.662;2022-11-03T06:55:21;17.88;;;5.35;;
40701;SDS011;26387;50.114;8.662;2022-11-03T07:00:47;16.92;;;5.40;;
40701;SDS011;26387;50.114;8.662;2022-11-03T07:06:01;20.58;;;5.40;;
40701;SDS011;26387;50.114;8.662;2022-11-03T07:08:41;17.15;;;6.07;;
40701;SDS011;26387;50.114;8.662;2022-11-03T07:11:21;13.63;;;5.32;;
40701;SDS011;26387;50.114;8.662;2022-11-03T07:13:54;17.10;;;5.90;;
40701;SDS011;26387;50.114;8.662;2022-11-03T07:16:28;18.60;;;5.65;;
40701;SDS011;26387;50.114;8.662;2022-11-03T07:19:00;16.67;;;5.60;;
40701;SDS011;26387;50.114;8.662;2022-11-03T07:21:48;18.55;;;5.45;;
40701;SDS011;26387;50.114;8.662;2022-11-03T07:27:12;12.45;;;5.43;;
40701;SDS011;26387;50.114;8.662;2022-11-03T07:29:39;13.20;;;5.45;;
40701;SDS011;26387;50.114;8.662;2022-11-03T07:32:08;15.73;;;5.60;;
40701;SDS011;26387;50.114;8.662;2022-11-03T07:34:46;15.52;;;5.65;;
40701;SDS011;26387;50.114;8.662;2022-11-03T07:37:14;19.65;;;6.10;;
40701;SDS011;26387;50.114;8.662;2022-11-03T07:39:43;24.05;;;6.28;;
40701;SDS011;26387;50.114;8.662;2022-11-03T07:42:12;23.73;;;6.75;;
40701;SDS011;26387;50.114;8.662;2022-11-03T07:44:42;21.23;;;6.47;;
40701;SDS011;26387;50.114;8.662;2022-11-03T07:47:24;17.33;;;5.65;;
40701;SDS011;26387;50.114;8.662;2022-11-03T07:49:50;16.83;;;6.18;;
40701;SDS011;26387;50.114;8.662;2022-11-03T07:52:21;18.95;;;5.90;;
40701;SDS011;26387;50.114;8.662;2022-11-03T07:54:48;18.90;;;5.35;;
40701;SDS011;26387;50.114;8.662;2022-11-03T07:57:23;20.38;;;6.18;;
40701;SDS011;26387;50.114;8.662;2022-11-03T08:00:03;15.25;;;5.50;;
40701;SDS011;26387;50.114;8.662;2022-11-03T08:02:36;17.63;;;6.10;;
40701;SDS011;26387;50.114;8.662;2022-11-03T08:05:11;17.05;;;5.75;;
40701;SDS011;26387;50.114;8.662;2022-11-03T08:07:36;21.88;;;5.68;;
40701;SDS011;26387;50.114;8.662;2022-11-03T08:10:02;20.85;;;6.13;;
40701;SDS011;26387;50.114;8.662;2022-11-03T08:12:28;21.40;;;5.68;;
40701;SDS011;26387;50.114;8.662;2022-11-03T08:14:53;22.23;;;5.47;;
40701;SDS011;26387;50.114;8.662;2022-11-03T08:17:19;18.27;;;5.75;;
40701;SDS011;26387;50.114;8.662;2022-11-03T08:19:44;25.33;;;6.40;;
40701;SDS011;26387;50.114;8.662;2022-11-03T08:22:10;21.13;;;6.47;;
40701;SDS011;26387;50.114;8.662;2022-11-03T08:24:36;27.50;;;7.18;;
40701;SDS011;26387;50.114;8.662;2022-11-03T08:27:02;28.02;;;6.68;;
40701;SDS011;26387;50.114;8.662;2022-11-03T08:29:29;17.75;;;5.53;;
40701;SDS011;26387;50.114;8.662;2022-11-03T08:31:54;27.67;;;6.20;;
40701;SDS011;26387;50.114;8.662;2022-11-03T08:34:20;18.33;;;5.45;;
40701;SDS011;26387;50.114;8.662;2022-11-03T08:36:46;17.63;;;5.50;;
40701;SDS011;26387;50.114;8.662;2022-11-03T08:39:12;17.50;;;5.53;;
40701;SDS011;26387;50.114;8.662;2022-11-03T08:41:38;16.35;;;6.05;;
40701;SDS011;26387;50.114;8.662;2022-11-03T08:44:04;23.23;;;6.60;;
40701;SDS011;26387;50.114;8.662;2022-11-03T08:46:30;15.50;;;5.28;;
40701;SDS011;26387;50.114;8.662;2022-11-03T08:48:56;18.55;;;5.78;;
40701;SDS011;26387;50.114;8.662;2022-11-03T08:51:22;14.95;;;5.45;;
40701;SDS011;26387;50.114;8.662;2022-11-03T08:53:48;14.70;;;5.75;;
40701;SDS011;26387;50.114;8.662;2022-11-03T08:56:17;14.55;;;5.38;;
40701;SDS011;26387;50.114;8.662;2022-11-03T08:58:43;16.50;;;5.82;;
40701;SDS011;26387;50.114;8.662;2022-11-03T09:01:10;16.05;;;5.60;;
40701;SDS011;26387;50.114;8.662;2022-11-03T09:03:36;17.13;;;5.68;;
40701;SDS011;26387;50.114;8.662;2022-11-03T09:06:02;16.95;;;6.07;;
40701;SDS011;26387;50.114;8.662;2022-11-03T09:08:28;16.27;;;5.93;;
40701;SDS011;26387;50.114;8.662;2022-11-03T09:10:54;17.65;;;5.68;;
40701;SDS011;26387;50.114;8.662;2022-11-03T09:13:20;20.17;;;5.88;;
40701;SDS011;26387;50.114;8.662;2022-11-03T09:15:46;14.57;;;5.60;;
40701;SDS011;26387;50.114;8.662;2022-11-03T09:18:11;14.68;;;5.55;;
40701;SDS011;26387;50.114;8.662;2022-11-03T09:20:37;19.33;;;6.22;;
40701;SDS011;26387;50.114;8.662;2022-11-03T09:23:04;14.95;;;5.32;;
40701;SDS011;26387;50.114;8.662;2022-11-03T09:25:30;14.68;;;5.70;;
40701;SDS011;26387;50.114;8.662;2022-11-03T09:27:56;13.75;;;5.55;;
40701;SDS011;26387;50.114;8.662;2022-11-03T09:30:22;15.25;;;5.88;;
40701;SDS011;26387;50.114;8.662;2022-11-03T09:32:48;20.27;;;6.38;;
40701;SDS011;26387;50.114;8.662;2022-11-03T09:35:14;11.90;;;5.30;;
40701;SDS011;26387;50.114;8.662;2022-11-03T09:37:41;20.85;;;5.78;;
40701;SDS011;26387;50.114;8.662;2022-11-03T09:40:07;18.40;;;5.78;;
40701;SDS011;26387;50.114;8.662;2022-11-03T09:42:34;17.08;;;5.35;;
40701;SDS011;26387;50.114;8.662;2022-11-03T09:45:01;20.70;;;5.82;;
40701;SDS011;26387;50.114;8.662;2022-11-03T09:47:32;14.38;;;4.97;;
40701;SDS011;26387;50.114;8.662;2022-11-03T09:49:59;16.63;;;5.28;;
40701;SDS011;26387;50.114;8.662;2022-11-03T09:52:25;11.15;;;4.43;;
40701;SDS011;26387;50.114;8.662;2022-11-03T09:54:52;11.57;;;5.20;;
40701;SDS011;26387;50.114;8.662;2022-11-03T09:57:21;15.35;;;5.10;;
40701;SDS011;26387;50.114;8.662;2022-11-03T09:59:47;13.57;;;5.38;;
40701;SDS011;26387;50.114;8.662;2022-11-03T10:02:23;11.80;;;5.32;;
40701;SDS011;26387;50.114;8.662;2022-11-03T10:04:50;13.40;;;5.35;;
40701;SDS011;26387;50.114;8.662;2022-11-03T10:07:16;13.73;;;5.07;;
40701;SDS011;26387;50.114;8.662;2022-11-03T10:09:43;12.57;;;4.75;;
40701;SDS011;26387;50.114;8.662;2022-11-03T10:12:11;15.13;;;5.40;;
40701;SDS011;26387;50.114;8.662;2022-11-03T10:14:37;11.90;;;4.70;;
40701;SDS011;26387;50.114;8.662;2022-11-03T10:17:03;14.02;;;5.28;;
40701;SDS011;26387;50.114;8.662;2022-11-03T10:19:29;9.55;;;5.22;;
40701;SDS011;26387;50.114;8.662;2022-11-03T10:21:54;12.40;;;5.20;;
40701;SDS011;26387;50.114;8.662;2022-11-03T10:24:20;14.98;;;5.45;;
40701;SDS011;26387;50.114;8.662;2022-11-03T10:26:50;17.75;;;5.95;;
40701;SDS011;26387;50.114;8.662;2022-11-03T10:31:46;12.43;;;5.30;;
40701;SDS011;26387;50.114;8.662;2022-11-03T10:34:35;18.40;;;5.60;;
40701;SDS011;26387;50.114;8.662;2022-11-03T10:39:46;15.07;;;5.20;;
40701;SDS011;26387;50.114;8.662;2022-11-03T10:42:20;13.73;;;5.50;;
40701;SDS011;26387;50.114;8.662;2022-11-03T10:44:47;16.10;;;5.22;;
40701;SDS011;26387;50.114;8.662;2022-11-03T10:47:23;17.05;;;5.65;;
40701;SDS011;26387;50.114;8.662;2022-11-03T10:49:49;16.25;;;5.53;;
40701;SDS011;26387;50.114;8.662;2022-11-03T10:54:41;14.63;;;4.85;;
40701;SDS011;26387;50.114;8.662;2022-11-03T10:57:07;13.70;;;5.25;;
40701;SDS011;26387;50.114;8.662;2022-11-03T10:59:35;14.93;;;5.07;;
40701;SDS011;26387;50.114;8.662;2022-11-03T11:02:01;13.93;;;5.22;;
40701;SDS011;26387;50.114;8.662;2022-11-03T11:04:28;11.38;;;4.60;;
40701;SDS011;26387;50.114;8.662;2022-11-03T11:06:56;14.85;;;5.30;;
40701;SDS011;26387;50.114;8.662;2022-11-03T11:09:23;10.05;;;4.85;;
40701;SDS011;26387;50.114;8.662;2022-11-03T11:12:00;12.18;;;4.50;;
40701;SDS011;26387;50.114;8.662;2022-11-03T11:14:34;12.90;;;5.05;;
40701;SDS011;26387;50.114;8.662;2022-11-03T11:17:03;12.15;;;4.18;;
40701;SDS011;26387;50.114;8.662;2022-11-03T11:19:29;14.20;;;5.35;;
40701;SDS011;26387;50.114;8.662;2022-11-03T11:22:20;15.13;;;4.75;;
40701;SDS011;26387;50.114;8.662;2022-11-03T11:29:56;13.85;;;4.30;;
40701;SDS011;26387;50.114;8.662;2022-11-03T11:35:17;12.43;;;4.57;;
40701;SDS011;26387;50.114;8.662;2022-11-03T11:37:43;13.23;;;4.78;;
40701;SDS011;26387;50.114;8.662;2022-11-03T11:40:13;11.75;;;4.60;;
40701;SDS011;26387;50.114;8.662;2022-11-03T11:48:15;15.15;;;4.78;;
40701;SDS011;26387;50.114;8.662;2022-11-03T11:50:42;14.13;;;4.30;;
40701;SDS011;26387;50.114;8.662;2022-11-03T11:53:09;12.55;;;4.50;;
40701;SDS011;26387;50.114;8.662;2022-11-03T11:55:39;14.10;;;4.10;;
40701;SDS011;26387;50.114;8.662;2022-11-03T11:58:49;8.90;;;4.25;;
40701;SDS011;26387;50.114;8.662;2022-11-03T12:00:56;11.77;;;3.85;;
40701;SDS011;26387;50.114;8.662;2022-11-03T12:03:42;11.98;;;3.95;;
40701;SDS011;26387;50.114;8.662;2022-11-03T12:06:11;12.82;;;4.10;;
40701;SDS011;26387;50.114;8.662;2022-11-03T12:08:37;11.82;;;3.90;;
40701;SDS011;26387;50.114;8.662;2022-11-03T12:11:03;10.40;;;4.13;;
40701;SDS011;26387;50.114;8.662;2022-11-03T12:13:48;11.18;;;4.18;;
40701;SDS011;26387;50.114;8.662;2022-11-03T12:16:35;11.48;;;3.97;;
40701;SDS011;26387;50.114;8.662;2022-11-03T12:21:47;12.38;;;4.07;;
40701;SDS011;26387;50.114;8.662;2022-11-03T12:26:58;9.07;;;3.33;;
40701;SDS011;26387;50.114;8.662;2022-11-03T12:29:24;16.52;;;4.05;;
40701;SDS011;26387;50.114;8.662;2022-11-03T12:31:50;11.02;;;3.88;;
40701;SDS011;26387;50.114;8.662;2022-11-03T12:34:16;26.77;;;8.10;;
40701;SDS011;26387;50.114;8.662;2022-11-03T12:36:45;13.85;;;4.88;;
40701;SDS011;26387;50.114;8.662;2022-11-03T12:39:11;8.75;;;3.90;;
40701;SDS011;26387;50.114;8.662;2022-11-03T12:41:37;13.48;;;4.85;;
40701;SDS011;26387;50.114;8.662;2022-11-03T12:44:03;14.98;;;3.80;;
40701;SDS011;26387;50.114;8.662;2022-11-03T12:46:30;15.20;;;3.88;;
40701;SDS011;26387;50.114;8.662;2022-11-03T12:48:56;13.27;;;4.55;;
40701;SDS011;26387;50.114;8.662;2022-11-03T12:51:22;11.40;;;4.05;;
40701;SDS011;26387;50.114;8.662;2022-11-03T12:53:49;11.70;;;4.40;;
40701;SDS011;26387;50.114;8.662;2022-11-03T12:56:15;12.98;;;4.18;;
40701;SDS011;26387;50.114;8.662;2022-11-03T12:58:42;14.52;;;4.70;;
40701;SDS011;26387;50.114;8.662;2022-11-03T13:01:08;14.02;;;4.70;;
40701;SDS011;26387;50.114;8.662;2022-11-03T13:03:34;10.63;;;4.10;;
40701;SDS011;26387;50.114;8.662;2022-11-03T13:06:01;15.82;;;4.43;;
40701;SDS011;26387;50.114;8.662;2022-11-03T13:08:29;13.52;;;4.70;;
40701;SDS011;26387;50.114;8.662;2022-11-03T13:10:55;11.43;;;4.40;;
40701;SDS011;26387;50.114;8.662;2022-11-03T13:13:21;13.25;;;4.72;;
40701;SDS011;26387;50.114;8.662;2022-11-03T13:15:46;12.65;;;4.90;;
40701;SDS011;26387;50.114;8.662;2022-11-03T13:18:12;12.73;;;4.32;;
40701;SDS011;26387;50.114;8.662;2022-11-03T13:20:37;11.65;;;4.28;;
40701;SDS011;26387;50.114;8.662;2022-11-03T13:23:04;12.65;;;4.32;;
40701;SDS011;26387;50.114;8.662;2022-11-03T13:25:30;14.52;;;4.30;;
40701;SDS011;26387;50.114;8.662;2022-11-03T13:27:56;13.02;;;4.43;;
40701;SDS011;26387;50.114;8.662;2022-11-03T13:30:22;17.50;;;4.40;;
40701;SDS011;26387;50.114;8.662;2022-11-03T13:32:48;15.88;;;4.82;;
40701;SDS011;26387;50.114;8.662;2022-11-03T13:35:14;11.45;;;4.85;;
40701;SDS011;26387;50.114;8.662;2022-11-03T13:37:40;16.23;;;4.47;;
40701;SDS011;26387;50.114;8.662;2022-11-03T13:40:06;16.48;;;4.25;;
40701;SDS011;26387;50.114;8.662;2022-11-03T13:42:33;9.45;;;3.95;;
40701;SDS011;26387;50.114;8.662;2022-11-03T13:44:58;9.35;;;3.47;;
40701;SDS011;26387;50.114;8.662;2022-11-03T13:47:24;16.48;;;4.20;;
40701;SDS011;26387;50.114;8.662;2022-11-03T13:49:50;14.40;;;3.80;;
40701;SDS011;26387;50.114;8.662;2022-11-03T13:52:16;11.20;;;3.85;;
40701;SDS011;26387;50.114;8.662;2022-11-03T13:54:43;15.75;;;4.07;;
40701;SDS011;26387;50.114;8.662;2022-11-03T13:57:08;14.20;;;5.13;;
40701;SDS011;26387;50.114;8.662;2022-11-03T13:59:34;15.88;;;4.22;;
40701;SDS011;26387;50.114;8.662;2022-11-03T14:02:00;10.50;;;4.50;;
40701;SDS011;26387;50.114;8.662;2022-11-03T14:04:26;13.32;;;4.75;;
40701;SDS011;26387;50.114;8.662;2022-11-03T14:06:51;14.57;;;5.05;;
40701;SDS011;26387;50.114;8.662;2022-11-03T14:09:17;12.23;;;4.82;;
40701;SDS011;26387;50.114;8.662;2022-11-03T14:11:42;20.00;;;5.90;;
40701;SDS011;26387;50.114;8.662;2022-11-03T14:14:27;15.32;;;4.75;;
40701;SDS011;26387;50.114;8.662;2022-11-03T14:16:52;15.63;;;4.95;;
40701;SDS011;26387;50.114;8.662;2022-11-03T14:19:18;11.48;;;4.55;;
40701;SDS011;26387;50.114;8.662;2022-11-03T14:21:43;16.15;;;5.35;;
40701;SDS011;26387;50.114;8.662;2022-11-03T14:24:09;19.27;;;4.95;;
40701;SDS011;26387;50.114;8.662;2022-11-03T14:26:35;11.07;;;4.28;;
40701;SDS011;26387;50.114;8.662;2022-11-03T14:29:00;13.73;;;4.30;;
40701;SDS011;26387;50.114;8.662;2022-11-03T14:31:26;19.30;;;4.30;;
40701;SDS011;26387;50.114;8.662;2022-11-03T14:33:52;16.60;;;4.45;;
40701;SDS011;26387;50.114;8.662;2022-11-03T14:36:17;15.30;;;5.20;;
40701;SDS011;26387;50.114;8.662;2022-11-03T14:38:43;13.25;;;4.28;;
40701;SDS011;26387;50.114;8.662;2022-11-03T14:41:08;14.20;;;3.95;;
40701;SDS011;26387;50.114;8.662;2022-11-03T14:43:52;13.07;;;3.63;;
40701;SDS011;26387;50.114;8.662;2022-11-03T14:46:18;10.50;;;3.72;;
40701;SDS011;26387;50.114;8.662;2022-11-03T14:48:43;12.25;;;3.58;;
40701;SDS011;26387;50.114;8.662;2022-11-03T14:51:09;11.02;;;3.53;;
40701;SDS011;26387;50.114;8.662;2022-11-03T14:53:34;12.15;;;3.88;;
40701;SDS011;26387;50.114;8.662;2022-11-03T14:56:00;12.32;;;3.92;;
40701;SDS011;26387;50.114;8.662;2022-11-03T14:58:25;8.07;;;3.72;;
40701;SDS011;26387;50.114;8.662;2022-11-03T15:00:51;10.50;;;3.60;;
40701;SDS011;26387;50.114;8.662;2022-11-03T15:03:16;18.42;;;3.70;;
40701;SDS011;26387;50.114;8.662;2022-11-03T15:05:42;9.60;;;3.65;;
40701;SDS011;26387;50.114;8.662;2022-11-03T15:08:08;11.85;;;3.75;;
40701;SDS011;26387;50.114;8.662;2022-11-03T15:10:34;11.93;;;3.92;;
40701;SDS011;26387;50.114;8.662;2022-11-03T15:13:00;13.50;;;4.00;;
40701;SDS011;26387;50.114;8.662;2022-11-03T15:15:26;9.93;;;4.18;;
40701;SDS011;26387;50.114;8.662;2022-11-03T15:17:52;10.32;;;4.03;;
40701;SDS011;26387;50.114;8.662;2022-11-03T15:20:18;9.98;;;3.90;;
40701;SDS011;26387;50.114;8.662;2022-11-03T15:22:44;11.73;;;3.83;;
40701;SDS011;26387;50.114;8.662;2022-11-03T15:25:10;11.80;;;4.32;;
40701;SDS011;26387;50.114;8.662;2022-11-03T15:27:36;7.53;;;4.03;;
40701;SDS011;26387;50.114;8.662;2022-11-03T15:30:03;9.07;;;4.03;;
40701;SDS011;26387;50.114;8.662;2022-11-03T15:32:29;9.68;;;4.55;;
40701;SDS011;26387;50.114;8.662;2022-11-03T15:34:55;11.80;;;4.65;;
40701;SDS011;26387;50.114;8.662;2022-11-03T15:37:21;17.73;;;4.57;;
40701;SDS011;26387;50.114;8.662;2022-11-03T15:39:47;14.32;;;4.18;;
40701;SDS011;26387;50.114;8.662;2022-11-03T15:42:13;12.48;;;4.45;;
40701;SDS011;26387;50.114;8.662;2022-11-03T15:44:39;13.85;;;4.50;;
40701;SDS011;26387;50.114;8.662;2022-11-03T15:47:05;12.88;;;4.97;;
40701;SDS011;26387;50.114;8.662;2022-11-03T15:49:31;11.52;;;4.45;;
40701;SDS011;26387;50.114;8.662;2022-11-03T15:51:57;13.45;;;4.20;;
40701;SDS011;26387;50.114;8.662;2022-11-03T15:54:23;12.23;;;4.45;;
40701;SDS011;26387;50.114;8.662;2022-11-03T15:56:49;11.18;;;4.35;;